sensor_id;sensor_type;location;lat;lon;timestamp;pressure;altitude;pressure_sealevel;temperature;humidity
14204;BME280;7185;51.854;6.622;2023-12-07T00:02:50;101658.56;;;4.82;73.29
14204;BME280;7185;51.854;6.622;2023-12-07T00:05:40;101665.50;;;4.83;73.25
14204;BME280;7185;51.854;6.622;2023-12-07T00:08:26;101665.56;;;4.86;73.48
14204;BME280;7185;51.854;6.622;2023-12-07T00:11:12;101660.50;;;4.92;73.20
14204;BME280;7185;51.854;6.622;2023-12-07T00:13:44;101662.25;;;4.93;73.16
14204;BME280;7185;51.854;6.622;2023-12-07T00:16:26;101657.22;;;5.01;72.59
14204;BME280;7185;51.854;6.622;2023-12-07T00:19:02;101652.84;;;4.98;72.83
14204;BME280;7185;51.854;6.622;2023-12-07T00:21:44;101663.94;;;4.91;72.24
14204;BME280;7185;51.854;6.622;2023-12-07T00:24:23;101657.72;;;4.83;72.47
14204;BME280;7185;51.854;6.622;2023-12-07T00:27:03;101654.94;;;4.76;72.64
14204;BME280;7185;51.854;6.622;2023-12-07T00:29:39;101650.75;;;4.82;72.15
14204;BME280;7185;51.854;6.622;2023-12-07T00:32:19;101653.16;;;4.72;72.29
14204;BME280;7185;51.854;6.622;2023-12-07T00:35:10;101660.78;;;4.65;73.22
14204;BME280;7185;51.854;6.622;2023-12-07T00:38:11;101656.34;;;4.62;72.75
14204;BME280;7185;51.854;6.622;2023-12-07T00:40:57;101655.47;;;4.60;72.34
14204;BME280;7185;51.854;6.622;2023-12-07T00:43:35;101653.72;;;4.60;72.19
14204;BME280;7185;51.854;6.622;2023-12-07T00:46:18;101660.53;;;4.54;72.17
14204;BME280;7185;51.854;6.622;2023-12-07T00:48:55;101662.09;;;4.49;72.11
14204;BME280;7185;51.854;6.622;2023-12-07T00:52:04;101655.88;;;4.40;72.68
14204;BME280;7185;51.854;6.622;2023-12-07T00:54:52;101660.16;;;4.38;72.48
14204;BME280;7185;51.854;6.622;2023-12-07T00:57:30;101672.44;;;4.45;72.49
14204;BME280;7185;51.854;6.622;2023-12-07T01:00:03;101669.59;;;4.36;73.14
14204;BME280;7185;51.854;6.622;2023-12-07T01:02:44;101670.44;;;4.35;72.69
14204;BME280;7185;51.854;6.622;2023-12-07T01:05:26;101675.59;;;4.34;72.59
14204;BME280;7185;51.854;6.622;2023-12-07T01:08:07;101669.59;;;4.36;73.48
14204;BME280;7185;51.854;6.622;2023-12-07T01:10:47;101669.59;;;4.36;72.76
14204;BME280;7185;51.854;6.622;2023-12-07T01:13:26;101672.22;;;4.38;72.44
14204;BME280;7185;51.854;6.622;2023-12-07T01:16:08;101668.78;;;4.37;71.96
14204;BME280;7185;51.854;6.622;2023-12-07T01:18:48;101673.78;;;4.29;72.23
14204;BME280;7185;51.854;6.622;2023-12-07T01:21:26;101672.88;;;4.29;72.43
14204;BME280;7185;51.854;6.622;2023-12-07T01:24:02;101673.69;;;4.26;72.16
14204;BME280;7185;51.854;6.622;2023-12-07T01:26:48;101677.13;;;4.25;72.59
14204;BME280;7185;51.854;6.622;2023-12-07T01:29:35;101681.47;;;4.25;72.31
14204;BME280;7185;51.854;6.622;2023-12-07T01:32:19;101678.88;;;4.26;72.67
14204;BME280;7185;51.854;6.622;2023-12-07T01:35:01;101677.34;;;4.33;73.34
14204;BME280;7185;51.854;6.622;2023-12-07T01:37:39;101674.81;;;4.36;72.42
14204;BME280;7185;51.854;6.622;2023-12-07T01:40:17;101673.13;;;4.38;72.54
14204;BME280;7185;51.854;6.622;2023-12-07T01:45:48;101666.47;;;4.50;72.00
14204;BME280;7185;51.854;6.622;2023-12-07T01:48:29;101662.44;;;4.62;71.47
14204;BME280;7185;51.854;6.622;2023-12-07T01:51:06;101681.06;;;4.44;71.66
14204;BME280;7185;51.854;6.622;2023-12-07T01:53:48;101676.47;;;4.34;72.03
14204;BME280;7185;51.854;6.622;2023-12-07T01:56:27;101673.81;;;4.31;72.93
14204;BME280;7185;51.854;6.622;2023-12-07T01:59:06;101669.38;;;4.27;72.73
14204;BME280;7185;51.854;6.622;2023-12-07T02:01:51;101677.59;;;4.44;72.26
14204;BME280;7185;51.854;6.622;2023-12-07T02:04:29;101680.72;;;4.30;72.50
14204;BME280;7185;51.854;6.622;2023-12-07T02:07:11;101683.50;;;4.38;72.44
14204;BME280;7185;51.854;6.622;2023-12-07T02:09:48;101692.91;;;4.33;72.60
14204;BME280;7185;51.854;6.622;2023-12-07T02:12:34;101690.38;;;4.36;72.94
14204;BME280;7185;51.854;6.622;2023-12-07T02:15:15;101693.75;;;4.32;72.91
14204;BME280;7185;51.854;6.622;2023-12-07T02:18:14;101692.84;;;4.31;72.39
14204;BME280;7185;51.854;6.622;2023-12-07T02:21:06;101698.72;;;4.24;72.99
14204;BME280;7185;51.854;6.622;2023-12-07T02:23:51;101700.47;;;4.24;72.76
14204;BME280;7185;51.854;6.622;2023-12-07T02:26:39;101690.94;;;4.24;72.50
14204;BME280;7185;51.854;6.622;2023-12-07T02:29:18;101700.47;;;4.24;72.24
14204;BME280;7185;51.854;6.622;2023-12-07T02:31:56;101694.28;;;4.19;72.08
14204;BME280;7185;51.854;6.622;2023-12-07T02:34:35;101689.88;;;4.16;72.39
14204;BME280;7185;51.854;6.622;2023-12-07T02:37:10;101701.06;;;4.13;72.38
14204;BME280;7185;51.854;6.622;2023-12-07T02:39:49;101698.41;;;4.10;72.55
14204;BME280;7185;51.854;6.622;2023-12-07T02:42:26;101691.50;;;4.12;72.68
14204;BME280;7185;51.854;6.622;2023-12-07T02:45:05;101693.19;;;4.10;72.45
14204;BME280;7185;51.854;6.622;2023-12-07T02:47:54;101696.09;;;4.23;72.34
14204;BME280;7185;51.854;6.622;2023-12-07T02:50:35;101684.72;;;4.18;71.88
14204;BME280;7185;51.854;6.622;2023-12-07T02:53:09;101686.72;;;4.28;72.08
14204;BME280;7185;51.854;6.622;2023-12-07T02:55:48;101682.28;;;4.24;72.55
14204;BME280;7185;51.854;6.622;2023-12-07T02:58:27;101693.34;;;4.17;72.86
14204;BME280;7185;51.854;6.622;2023-12-07T03:01:15;101686.50;;;4.19;73.10
14204;BME280;7185;51.854;6.622;2023-12-07T03:03:56;101689.94;;;4.18;73.63
14204;BME280;7185;51.854;6.622;2023-12-07T03:06:32;101681.31;;;4.19;74.31
14204;BME280;7185;51.854;6.622;2023-12-07T03:09:08;101678.84;;;4.25;73.42
14204;BME280;7185;51.854;6.622;2023-12-07T03:12:01;101689.25;;;4.25;73.78
14204;BME280;7185;51.854;6.622;2023-12-07T03:14:41;101683.31;;;4.30;73.86
14204;BME280;7185;51.854;6.622;2023-12-07T03:17:19;101685.13;;;4.33;73.84
14204;BME280;7185;51.854;6.622;2023-12-07T03:20:13;101683.53;;;4.40;73.41
14204;BME280;7185;51.854;6.622;2023-12-07T03:22:56;101690.66;;;4.49;73.39
14204;BME280;7185;51.854;6.622;2023-12-07T03:25:36;101689.94;;;4.54;73.37
14204;BME280;7185;51.854;6.622;2023-12-07T03:28:15;101692.91;;;4.33;73.95
14204;BME280;7185;51.854;6.622;2023-12-07T03:30:51;101692.66;;;4.59;73.49
14204;BME280;7185;51.854;6.622;2023-12-07T03:33:33;101695.88;;;4.49;73.79
14204;BME280;7185;51.854;6.622;2023-12-07T03:36:11;101695.97;;;4.52;73.42
14204;BME280;7185;51.854;6.622;2023-12-07T03:38:45;101691.59;;;4.51;73.89
14204;BME280;7185;51.854;6.622;2023-12-07T03:41:22;101693.34;;;4.50;73.70
14204;BME280;7185;51.854;6.622;2023-12-07T03:43:59;101696.75;;;4.49;73.43
14204;BME280;7185;51.854;6.622;2023-12-07T03:46:40;101697.34;;;4.37;73.59
14204;BME280;7185;51.854;6.622;2023-12-07T03:49:18;101701.81;;;4.43;73.66
14204;BME280;7185;51.854;6.622;2023-12-07T03:52:04;101701.72;;;4.40;73.37
14204;BME280;7185;51.854;6.622;2023-12-07T03:54:46;101704.03;;;4.29;73.36
14204;BME280;7185;51.854;6.622;2023-12-07T03:57:39;101710.75;;;4.21;73.67
14204;BME280;7185;51.854;6.622;2023-12-07T04:00:26;101702.53;;;4.37;73.61
14204;BME280;7185;51.854;6.622;2023-12-07T04:03:03;101703.91;;;4.23;73.82
14204;BME280;7185;51.854;6.622;2023-12-07T04:05:43;101708.28;;;4.25;73.68
14204;BME280;7185;51.854;6.622;2023-12-07T04:08:16;101705.72;;;4.27;73.87
14204;BME280;7185;51.854;6.622;2023-12-07T04:10:47;101701.31;;;4.24;73.75
14204;BME280;7185;51.854;6.622;2023-12-07T04:13:22;101698.69;;;4.23;74.06
14204;BME280;7185;51.854;6.622;2023-12-07T04:16:02;101708.84;;;4.13;74.32
14204;BME280;7185;51.854;6.622;2023-12-07T04:18:41;101712.41;;;3.83;75.24
14204;BME280;7185;51.854;6.622;2023-12-07T04:21:27;101722.34;;;4.00;74.90
14204;BME280;7185;51.854;6.622;2023-12-07T04:23:59;101716.72;;;3.85;75.46
14204;BME280;7185;51.854;6.622;2023-12-07T04:26:34;101718.25;;;4.10;74.97
14204;BME280;7185;51.854;6.622;2023-12-07T04:29:13;101712.44;;;4.19;74.61
14204;BME280;7185;51.854;6.622;2023-12-07T04:31:54;101717.38;;;4.08;74.76
14204;BME280;7185;51.854;6.622;2023-12-07T04:34:35;101715.84;;;3.84;76.23
14204;BME280;7185;51.854;6.622;2023-12-07T04:37:14;101717.31;;;4.06;74.94
14204;BME280;7185;51.854;6.622;2023-12-07T04:39:56;101731.06;;;4.04;75.44
14204;BME280;7185;51.854;6.622;2023-12-07T04:42:39;101730.72;;;3.90;75.64
14204;BME280;7185;51.854;6.622;2023-12-07T04:45:15;101733.84;;;4.10;75.32
14204;BME280;7185;51.854;6.622;2023-12-07T04:47:53;101731.69;;;4.27;74.76
14204;BME280;7185;51.854;6.622;2023-12-07T04:50:38;101721.84;;;3.81;76.50
14204;BME280;7185;51.854;6.622;2023-12-07T04:53:25;101730.72;;;4.23;75.37
14204;BME280;7185;51.854;6.622;2023-12-07T04:56:07;101719.94;;;4.41;74.93
14204;BME280;7185;51.854;6.622;2023-12-07T04:58:52;101723.41;;;4.08;75.39
14204;BME280;7185;51.854;6.622;2023-12-07T05:01:30;101725.06;;;4.38;75.21
14204;BME280;7185;51.854;6.622;2023-12-07T05:04:08;101732.31;;;4.52;74.75
14204;BME280;7185;51.854;6.622;2023-12-07T05:06:56;101737.94;;;4.70;74.49
14204;BME280;7185;51.854;6.622;2023-12-07T05:09:36;101742.13;;;4.63;74.32
14204;BME280;7185;51.854;6.622;2023-12-07T05:12:15;101736.72;;;4.56;74.43
14204;BME280;7185;51.854;6.622;2023-12-07T05:14:55;101737.56;;;4.55;75.01
14204;BME280;7185;51.854;6.622;2023-12-07T05:17:32;101741.94;;;4.56;74.81
14204;BME280;7185;51.854;6.622;2023-12-07T05:20:08;101745.34;;;4.53;75.48
14204;BME280;7185;51.854;6.622;2023-12-07T05:22:47;101734.06;;;4.53;75.79
14204;BME280;7185;51.854;6.622;2023-12-07T05:25:31;101736.72;;;4.56;75.08
14204;BME280;7185;51.854;6.622;2023-12-07T05:28:03;101740.66;;;4.75;75.28
14204;BME280;7185;51.854;6.622;2023-12-07T05:30:36;101740.78;;;4.79;74.93
14204;BME280;7185;51.854;6.622;2023-12-07T05:33:11;101743.34;;;4.78;75.48
14204;BME280;7185;51.854;6.622;2023-12-07T05:35:43;101740.09;;;4.87;74.79
14204;BME280;7185;51.854;6.622;2023-12-07T05:38:17;101745.34;;;4.90;74.94
14204;BME280;7185;51.854;6.622;2023-12-07T05:41:01;101737.66;;;4.58;76.20
14204;BME280;7185;51.854;6.622;2023-12-07T05:43:33;101737.66;;;4.94;75.00
14204;BME280;7185;51.854;6.622;2023-12-07T05:46:05;101732.66;;;5.02;74.92
14204;BME280;7185;51.854;6.622;2023-12-07T05:48:37;101724.72;;;4.96;75.36
14204;BME280;7185;51.854;6.622;2023-12-07T05:51:12;101732.69;;;5.04;75.31
14204;BME280;7185;51.854;6.622;2023-12-07T05:53:46;101729.56;;;4.81;75.92
14204;BME280;7185;51.854;6.622;2023-12-07T05:56:18;101723.13;;;5.03;75.56
14204;BME280;7185;51.854;6.622;2023-12-07T05:59:00;101712.03;;;5.11;75.08
14204;BME280;7185;51.854;6.622;2023-12-07T06:01:32;101719.66;;;5.02;76.14
14204;BME280;7185;51.854;6.622;2023-12-07T06:04:10;101719.72;;;5.05;75.68
14204;BME280;7185;51.854;6.622;2023-12-07T06:06:42;101725.28;;;4.83;76.54
14204;BME280;7185;51.854;6.622;2023-12-07T06:09:15;101718.56;;;4.92;76.55
14204;BME280;7185;51.854;6.622;2023-12-07T06:11:54;101722.25;;;5.02;76.06
14204;BME280;7185;51.854;6.622;2023-12-07T06:14:25;101718.63;;;4.95;76.70
14204;BME280;7185;51.854;6.622;2023-12-07T06:16:58;101724.78;;;4.99;76.68
14204;BME280;7185;51.854;6.622;2023-12-07T06:19:32;101714.75;;;5.16;76.08
14204;BME280;7185;51.854;6.622;2023-12-07T06:22:13;101716.34;;;5.09;76.61
14204;BME280;7185;51.854;6.622;2023-12-07T06:24:48;101710.38;;;5.15;76.46
14204;BME280;7185;51.854;6.622;2023-12-07T06:27:20;101717.81;;;4.98;76.76
14204;BME280;7185;51.854;6.622;2023-12-07T06:29:55;101715.31;;;5.03;77.22
14204;BME280;7185;51.854;6.622;2023-12-07T06:32:27;101707.97;;;4.83;77.04
14204;BME280;7185;51.854;6.622;2023-12-07T06:34:59;101706.59;;;5.01;76.92
14204;BME280;7185;51.854;6.622;2023-12-07T06:37:40;101710.50;;;5.20;76.53
14204;BME280;7185;51.854;6.622;2023-12-07T06:40:22;101708.91;;;5.26;76.12
14204;BME280;7185;51.854;6.622;2023-12-07T06:43:25;101715.09;;;5.33;76.10
14204;BME280;7185;51.854;6.622;2023-12-07T06:46:05;101722.59;;;4.79;77.51
14204;BME280;7185;51.854;6.622;2023-12-07T06:48:41;101722.06;;;4.94;77.25
14204;BME280;7185;51.854;6.622;2023-12-07T06:51:16;101721.81;;;5.22;76.70
14204;BME280;7185;51.854;6.622;2023-12-07T06:53:48;101724.06;;;5.06;76.95
14204;BME280;7185;51.854;6.622;2023-12-07T06:56:24;101727.09;;;5.25;76.72
14204;BME280;7185;51.854;6.622;2023-12-07T06:59:00;101718.03;;;5.07;77.25
14204;BME280;7185;51.854;6.622;2023-12-07T07:01:35;101722.97;;;4.95;77.27
14204;BME280;7185;51.854;6.622;2023-12-07T07:04:12;101728.34;;;5.04;77.17
14204;BME280;7185;51.854;6.622;2023-12-07T07:06:44;101728.75;;;4.83;78.18
14204;BME280;7185;51.854;6.622;2023-12-07T07:09:21;101724.50;;;4.87;78.13
14204;BME280;7185;51.854;6.622;2023-12-07T07:11:58;101726.00;;;4.77;78.48
14204;BME280;7185;51.854;6.622;2023-12-07T07:14:29;101722.69;;;4.83;78.27
14204;BME280;7185;51.854;6.622;2023-12-07T07:17:01;101735.31;;;4.69;78.56
14204;BME280;7185;51.854;6.622;2023-12-07T07:19:34;101731.91;;;4.71;79.09
14204;BME280;7185;51.854;6.622;2023-12-07T07:22:12;101715.91;;;4.91;77.56
14204;BME280;7185;51.854;6.622;2023-12-07T07:24:47;101718.56;;;4.56;78.81
14204;BME280;7185;51.854;6.622;2023-12-07T07:27:20;101720.78;;;4.75;78.37
14204;BME280;7185;51.854;6.622;2023-12-07T07:29:52;101725.50;;;4.57;78.83
14204;BME280;7185;51.854;6.622;2023-12-07T07:32:24;101720.84;;;4.78;78.49
14204;BME280;7185;51.854;6.622;2023-12-07T07:34:55;101708.97;;;4.90;77.90
14204;BME280;7185;51.854;6.622;2023-12-07T07:37:27;101717.63;;;4.89;77.99
14204;BME280;7185;51.854;6.622;2023-12-07T07:39:59;101716.50;;;5.17;77.19
14204;BME280;7185;51.854;6.622;2023-12-07T07:42:32;101719.34;;;5.28;76.85
14204;BME280;7185;51.854;6.622;2023-12-07T07:45:05;101722.59;;;5.18;77.04
14204;BME280;7185;51.854;6.622;2023-12-07T07:47:37;101728.28;;;5.01;78.51
14204;BME280;7185;51.854;6.622;2023-12-07T07:50:09;101726.03;;;5.17;77.57
14204;BME280;7185;51.854;6.622;2023-12-07T07:52:41;101723.56;;;5.21;77.79
14204;BME280;7185;51.854;6.622;2023-12-07T07:55:13;101727.34;;;5.37;77.25
14204;BME280;7185;51.854;6.622;2023-12-07T07:57:49;101729.47;;;5.16;77.31
14204;BME280;7185;51.854;6.622;2023-12-07T08:00:21;101722.88;;;5.30;77.35
14204;BME280;7185;51.854;6.622;2023-12-07T08:02:56;101721.13;;;5.31;77.68
14204;BME280;7185;51.854;6.622;2023-12-07T08:05:28;101728.78;;;5.23;77.87
14204;BME280;7185;51.854;6.622;2023-12-07T08:07:59;101733.72;;;5.10;78.00
14204;BME280;7185;51.854;6.622;2023-12-07T08:10:31;101732.44;;;5.33;77.37
14204;BME280;7185;51.854;6.622;2023-12-07T08:13:04;101737.00;;;5.03;78.40
14204;BME280;7185;51.854;6.622;2023-12-07T08:15:38;101736.03;;;5.38;77.34
14204;BME280;7185;51.854;6.622;2023-12-07T08:18:10;101739.38;;;5.73;75.76
14204;BME280;7185;51.854;6.622;2023-12-07T08:20:44;101743.66;;;5.71;75.92
14204;BME280;7185;51.854;6.622;2023-12-07T08:23:17;101739.19;;;5.64;76.47
14204;BME280;7185;51.854;6.622;2023-12-07T08:25:48;101734.28;;;5.80;75.62
14204;BME280;7185;51.854;6.622;2023-12-07T08:28:21;101741.09;;;5.74;75.34
14204;BME280;7185;51.854;6.622;2023-12-07T08:30:53;101744.53;;;6.15;74.30
14204;BME280;7185;51.854;6.622;2023-12-07T08:33:25;101745.56;;;6.23;73.77
14204;BME280;7185;51.854;6.622;2023-12-07T08:35:56;101748.38;;;6.37;73.14
14204;BME280;7185;51.854;6.622;2023-12-07T08:38:28;101740.09;;;6.11;73.89
14204;BME280;7185;51.854;6.622;2023-12-07T08:41:00;101746.59;;;6.34;73.28
14204;BME280;7185;51.854;6.622;2023-12-07T08:43:34;101742.13;;;6.27;73.50
14204;BME280;7185;51.854;6.622;2023-12-07T08:46:06;101738.16;;;6.48;72.82
14204;BME280;7185;51.854;6.622;2023-12-07T08:48:38;101740.25;;;6.18;72.72
14204;BME280;7185;51.854;6.622;2023-12-07T08:51:10;101746.28;;;6.16;73.04
14204;BME280;7185;51.854;6.622;2023-12-07T08:53:41;101741.19;;;6.22;73.18
14204;BME280;7185;51.854;6.622;2023-12-07T08:56:13;101746.91;;;6.02;73.71
14204;BME280;7185;51.854;6.622;2023-12-07T08:58:46;101750.59;;;6.15;73.71
14204;BME280;7185;51.854;6.622;2023-12-07T09:01:18;101741.75;;;6.07;73.51
14204;BME280;7185;51.854;6.622;2023-12-07T09:03:50;101742.69;;;6.11;73.45
14204;BME280;7185;51.854;6.622;2023-12-07T09:06:21;101741.53;;;5.96;73.44
14204;BME280;7185;51.854;6.622;2023-12-07T09:08:53;101746.38;;;5.78;73.72
14204;BME280;7185;51.854;6.622;2023-12-07T09:11:25;101746.06;;;5.21;75.22
14204;BME280;7185;51.854;6.622;2023-12-07T09:13:58;101752.53;;;5.00;76.68
14204;BME280;7185;51.854;6.622;2023-12-07T09:16:31;101744.03;;;5.07;76.91
14204;BME280;7185;51.854;6.622;2023-12-07T09:19:03;101747.72;;;5.19;76.63
14204;BME280;7185;51.854;6.622;2023-12-07T09:21:34;101744.63;;;5.34;76.26
14204;BME280;7185;51.854;6.622;2023-12-07T09:24:06;101743.78;;;5.35;76.59
14204;BME280;7185;51.854;6.622;2023-12-07T09:26:38;101753.63;;;5.10;76.58
14204;BME280;7185;51.854;6.622;2023-12-07T09:29:11;101753.59;;;5.08;77.30
14204;BME280;7185;51.854;6.622;2023-12-07T09:31:43;101752.06;;;5.18;76.85
14204;BME280;7185;51.854;6.622;2023-12-07T09:34:18;101740.97;;;5.27;76.52
14204;BME280;7185;51.854;6.622;2023-12-07T09:37:05;101741.34;;;5.44;76.86
14204;BME280;7185;51.854;6.622;2023-12-07T09:39:37;101731.16;;;5.55;76.26
14204;BME280;7185;51.854;6.622;2023-12-07T09:42:08;101730.91;;;5.41;76.94
14204;BME280;7185;51.854;6.622;2023-12-07T09:44:47;101731.03;;;5.49;77.36
14204;BME280;7185;51.854;6.622;2023-12-07T09:47:23;101739.31;;;5.29;77.50
14204;BME280;7185;51.854;6.622;2023-12-07T09:49:57;101731.53;;;5.31;78.05
14204;BME280;7185;51.854;6.622;2023-12-07T09:52:29;101723.84;;;5.35;77.79
14204;BME280;7185;51.854;6.622;2023-12-07T09:55:02;101723.03;;;5.39;77.73
14204;BME280;7185;51.854;6.622;2023-12-07T09:57:34;101725.25;;;5.21;78.01
14204;BME280;7185;51.854;6.622;2023-12-07T10:00:08;101721.53;;;5.49;77.54
14204;BME280;7185;51.854;6.622;2023-12-07T10:02:41;101719.34;;;5.28;78.39
14204;BME280;7185;51.854;6.622;2023-12-07T10:05:14;101709.25;;;5.42;78.02
14204;BME280;7185;51.854;6.622;2023-12-07T10:07:48;101708.31;;;5.38;78.42
14204;BME280;7185;51.854;6.622;2023-12-07T10:10:21;101710.66;;;5.70;77.62
14204;BME280;7185;51.854;6.622;2023-12-07T10:12:53;101706.00;;;5.98;76.26
14204;BME280;7185;51.854;6.622;2023-12-07T10:15:27;101708.84;;;6.11;76.50
14204;BME280;7185;51.854;6.622;2023-12-07T10:18:00;101700.94;;;6.04;76.46
14204;BME280;7185;51.854;6.622;2023-12-07T10:20:32;101695.56;;;5.97;76.45
14204;BME280;7185;51.854;6.622;2023-12-07T10:23:05;101690.34;;;5.95;76.10
14204;BME280;7185;51.854;6.622;2023-12-07T10:25:38;101696.63;;;6.06;76.37
14204;BME280;7185;51.854;6.622;2023-12-07T10:28:11;101689.56;;;5.99;76.98
14204;BME280;7185;51.854;6.622;2023-12-07T10:30:44;101683.25;;;5.88;77.24
14204;BME280;7185;51.854;6.622;2023-12-07T10:33:16;101678.09;;;5.91;77.08
14204;BME280;7185;51.854;6.622;2023-12-07T10:35:48;101678.06;;;5.88;77.26
14204;BME280;7185;51.854;6.622;2023-12-07T10:38:20;101674.44;;;5.80;77.71
14204;BME280;7185;51.854;6.622;2023-12-07T10:41:03;101658.88;;;6.33;76.62
14204;BME280;7185;51.854;6.622;2023-12-07T10:43:37;101668.28;;;6.24;76.34
14204;BME280;7185;51.854;6.622;2023-12-07T10:46:13;101659.59;;;6.23;75.99
14204;BME280;7185;51.854;6.622;2023-12-07T10:48:47;101659.88;;;6.42;75.91
14204;BME280;7185;51.854;6.622;2023-12-07T10:51:24;101657.00;;;6.23;76.67
14204;BME280;7185;51.854;6.622;2023-12-07T10:54:03;101645.00;;;5.85;77.17
14204;BME280;7185;51.854;6.622;2023-12-07T10:56:39;101648.03;;;6.07;77.38
14204;BME280;7185;51.854;6.622;2023-12-07T10:59:13;101642.16;;;6.19;76.81
14204;BME280;7185;51.854;6.622;2023-12-07T11:01:47;101637.72;;;6.13;77.04
14204;BME280;7185;51.854;6.622;2023-12-07T11:04:19;101638.72;;;6.20;77.49
14204;BME280;7185;51.854;6.622;2023-12-07T11:06:53;101628.63;;;6.42;76.68
14204;BME280;7185;51.854;6.622;2023-12-07T11:09:32;101612.25;;;6.50;75.96
14204;BME280;7185;51.854;6.622;2023-12-07T11:12:11;101605.88;;;6.31;76.57
14204;BME280;7185;51.854;6.622;2023-12-07T11:14:46;101597.38;;;6.42;76.60
14204;BME280;7185;51.854;6.622;2023-12-07T11:17:20;101592.06;;;6.35;76.99
14204;BME280;7185;51.854;6.622;2023-12-07T11:19:52;101593.94;;;6.46;76.15
14204;BME280;7185;51.854;6.622;2023-12-07T11:22:24;101590.03;;;6.77;76.08
14204;BME280;7185;51.854;6.622;2023-12-07T11:24:57;101582.00;;;6.60;76.67
14204;BME280;7185;51.854;6.622;2023-12-07T11:27:31;101577.81;;;6.72;76.04
14204;BME280;7185;51.854;6.622;2023-12-07T11:30:04;101574.25;;;6.66;76.43
14204;BME280;7185;51.854;6.622;2023-12-07T11:32:38;101576.56;;;7.09;75.49
14204;BME280;7185;51.854;6.622;2023-12-07T11:35:12;101564.56;;;7.25;75.06
14204;BME280;7185;51.854;6.622;2023-12-07T11:38:02;101563.88;;;7.45;74.39
14204;BME280;7185;51.854;6.622;2023-12-07T11:40:36;101562.31;;;7.62;74.37
14204;BME280;7185;51.854;6.622;2023-12-07T11:43:08;101553.53;;;7.54;74.06
14204;BME280;7185;51.854;6.622;2023-12-07T11:45:40;101549.38;;;7.76;73.37
14204;BME280;7185;51.854;6.622;2023-12-07T11:48:14;101537.47;;;8.11;73.88
14204;BME280;7185;51.854;6.622;2023-12-07T11:50:55;101534.19;;;8.40;73.62
14204;BME280;7185;51.854;6.622;2023-12-07T11:53:28;101539.34;;;8.27;71.73
14204;BME280;7185;51.854;6.622;2023-12-07T11:56:02;101522.88;;;8.44;71.46
14204;BME280;7185;51.854;6.622;2023-12-07T11:58:35;101527.19;;;8.40;71.54
14204;BME280;7185;51.854;6.622;2023-12-07T12:01:07;101528.09;;;8.44;71.47
14204;BME280;7185;51.854;6.622;2023-12-07T12:03:42;101520.50;;;8.92;71.50
14204;BME280;7185;51.854;6.622;2023-12-07T12:06:14;101518.78;;;8.94;70.57
14204;BME280;7185;51.854;6.622;2023-12-07T12:08:46;101526.72;;;9.42;69.66
14204;BME280;7185;51.854;6.622;2023-12-07T12:11:17;101518.84;;;10.27;69.50
14204;BME280;7185;51.854;6.622;2023-12-07T12:13:49;101516.44;;;11.64;68.44
14204;BME280;7185;51.854;6.622;2023-12-07T12:16:21;101500.56;;;12.62;63.95
14204;BME280;7185;51.854;6.622;2023-12-07T12:18:54;101500.34;;;13.43;61.79
14204;BME280;7185;51.854;6.622;2023-12-07T12:21:26;101492.38;;;13.48;60.31
14204;BME280;7185;51.854;6.622;2023-12-07T12:23:58;101485.47;;;14.39;57.86
14204;BME280;7185;51.854;6.622;2023-12-07T12:26:30;101484.59;;;14.82;55.47
14204;BME280;7185;51.854;6.622;2023-12-07T12:29:02;101479.44;;;15.17;51.65
14204;BME280;7185;51.854;6.622;2023-12-07T12:31:34;101480.34;;;15.16;52.05
14204;BME280;7185;51.854;6.622;2023-12-07T12:34:07;101463.47;;;16.25;50.08
14204;BME280;7185;51.854;6.622;2023-12-07T12:36:41;101459.94;;;16.86;50.77
14204;BME280;7185;51.854;6.622;2023-12-07T12:39:13;101454.72;;;16.53;48.14
14204;BME280;7185;51.854;6.622;2023-12-07T12:41:45;101450.22;;;15.59;48.92
14204;BME280;7185;51.854;6.622;2023-12-07T12:44:16;101445.22;;;15.47;50.53
14204;BME280;7185;51.854;6.622;2023-12-07T12:46:48;101457.72;;;14.19;51.63
14204;BME280;7185;51.854;6.622;2023-12-07T12:49:21;101450.97;;;12.98;55.34
14204;BME280;7185;51.854;6.622;2023-12-07T12:51:54;101449.38;;;13.46;54.08
14204;BME280;7185;51.854;6.622;2023-12-07T12:54:30;101454.16;;;13.19;55.71
14204;BME280;7185;51.854;6.622;2023-12-07T12:57:02;101444.38;;;13.27;55.70
14204;BME280;7185;51.854;6.622;2023-12-07T12:59:34;101436.44;;;13.32;55.99
14204;BME280;7185;51.854;6.622;2023-12-07T13:02:06;101436.72;;;14.15;55.18
14204;BME280;7185;51.854;6.622;2023-12-07T13:04:40;101434.59;;;15.14;53.23
14204;BME280;7185;51.854;6.622;2023-12-07T13:07:12;101424.28;;;15.74;51.96
14204;BME280;7185;51.854;6.622;2023-12-07T13:09:44;101418.88;;;16.12;47.99
14204;BME280;7185;51.854;6.622;2023-12-07T13:12:16;101416.31;;;16.10;47.98
14204;BME280;7185;51.854;6.622;2023-12-07T13:14:48;101419.56;;;16.18;46.95
14204;BME280;7185;51.854;6.622;2023-12-07T13:17:19;101411.91;;;16.09;46.86
14204;BME280;7185;51.854;6.622;2023-12-07T13:19:52;101407.66;;;15.36;48.25
14204;BME280;7185;51.854;6.622;2023-12-07T13:22:24;101403.31;;;16.01;47.13
14204;BME280;7185;51.854;6.622;2023-12-07T13:24:56;101411.28;;;14.95;48.65
14204;BME280;7185;51.854;6.622;2023-12-07T13:27:28;101413.31;;;14.82;49.48
14204;BME280;7185;51.854;6.622;2023-12-07T13:30:00;101415.13;;;14.80;49.67
14204;BME280;7185;51.854;6.622;2023-12-07T13:32:32;101422.72;;;14.94;49.15
14204;BME280;7185;51.854;6.622;2023-12-07T13:35:06;101421.97;;;14.05;52.58
14204;BME280;7185;51.854;6.622;2023-12-07T13:37:38;101415.59;;;14.15;50.88
14204;BME280;7185;51.854;6.622;2023-12-07T13:40:11;101411.06;;;14.23;50.55
14204;BME280;7185;51.854;6.622;2023-12-07T13:42:48;101406.06;;;14.09;50.23
14204;BME280;7185;51.854;6.622;2023-12-07T13:45:19;101416.22;;;13.32;51.64
14204;BME280;7185;51.854;6.622;2023-12-07T13:47:51;101403.25;;;13.18;52.21
14204;BME280;7185;51.854;6.622;2023-12-07T13:50:24;101406.53;;;12.08;54.99
14204;BME280;7185;51.854;6.622;2023-12-07T13:52:56;101400.88;;;11.59;56.17
14204;BME280;7185;51.854;6.622;2023-12-07T13:55:31;101391.50;;;11.32;57.47
14204;BME280;7185;51.854;6.622;2023-12-07T13:58:03;101388.75;;;11.46;56.73
14204;BME280;7185;51.854;6.622;2023-12-07T14:00:37;101391.06;;;10.74;58.86
14204;BME280;7185;51.854;6.622;2023-12-07T14:03:09;101379.75;;;10.63;58.97